Tiempo atmosférico en la estación meteorológica de Tarragona, Tarragona (60 m.)



Fecha
DESCASC
Temp. máxima en grados centígrados (hora)
DESCASC
Temp. mínima en grados centígrados (hora)
DESCASC
Temp. media en grados centígrados
DESCASC
Racha de viento máxima en m/sg (hora)
DESCASC
Velocidad máxima media en intervalos de 10 minutos(hora)
DESCASC
Precipitaciones diarias en mm
DESCASC
Precipitaciones de 00:00 a 06:00 en mm
DESCASC
Precipitaciones de 06:00 a 12:00 en mm
DESCASC
Precipitaciones de 12:00 a 18:00 en mm
DESCASC
Precipitaciones de 18:00 a 24:00 en mm
DESCASC
10-11-2019 16.6 (13:40) 6.7 (00:00) 11.7 -- (--) -- (--) 0.2 0.2 0 0 0
09-11-2019 18.5 (12:40) 9.8 (00:00) 14.2 -- (--) -- (--) 0 0 0 0 0
08-11-2019 17.1 (14:50) 8.8 (06:40) 13 -- (--) -- (--) 0 0 0 0 0
07-11-2019 19.6 (14:20) 10 (00:00) 14.8 -- (--) -- (--) 0 0 0 0 0
06-11-2019 21.4 (15:10) 11.3 (00:00) 16.3 -- (--) -- (--) 0 0 0 0 0
05-11-2019 20.7 (14:40) 13.3 (00:00) 17 -- (--) -- (--) 0 0 0 0 0
04-11-2019 24.9 (12:30) 16.4 (00:00) 20.6 -- (--) -- (--) -- -- -- 0 0
03-11-2019 21.2 (14:40) 16.3 (00:00) 18.8 -- (--) -- (--) -- -- -- -- --
02-11-2019 27.1 (14:20) 16 (00:00) 21.6 -- (--) -- (--) -- -- -- -- --
01-11-2019 21.7 (16:00) 12.4 (00:00) 17.1 -- (--) -- (--) -- -- -- -- --
31-10-2019 26.3 (15:30) 15.5 (04:50) 20.9 -- (--) -- (--) 0 0 0 0 0
30-10-2019 26.2 (14:10) 15.4 (00:00) 20.8 -- (--) -- (--) 0 0 0 0 0
29-10-2019 22.5 (15:30) 14.1 (00:00) 18.3 -- (--) -- (--) -- -- -- 0 0
28-10-2019 20.8 (11:50) 13.6 (00:00) 17.2 -- (--) -- (--) -- -- -- -- --
27-10-2019 23.1 (14:20) 12.5 (00:00) 17.8 -- (--) -- (--) -- -- -- -- --
26-10-2019 22.7 (14:50) 12.1 (00:00) 17.4 -- (--) -- (--) -- -- -- -- --
25-10-2019 23.3 (16:40) 11.4 (00:00) 17.3 -- (--) -- (--) -- -- -- -- --
24-10-2019 22.3 (15:40) 12.2 (00:00) 17.2 -- (--) -- (--) -- -- -- -- --
23-10-2019 19.8 (13:00) 14 (00:00) 16.9 -- (--) -- (--) 17.2 11.4 3.6 1.4 0.8
22-10-2019 21 (19:40) 13.9 (06:30) 17.4 -- (--) -- (--) 51 4.4 12.6 6 28
21-10-2019 21.2 (14:20) 13 (00:00) 17.1 -- (--) -- (--) 0 0 0 0 0
20-10-2019 22.4 (09:50) 14.6 (00:00) 18.5 -- (--) -- (--) 2.6 0 0 2.6 0
19-10-2019 24.4 (13:00) 15.6 (00:00) 20 -- (--) -- (--) 0 0 0 0 0
18-10-2019 24.3 (16:00) 14.8 (00:00) 19.5 -- (--) -- (--) 0 0 0 0 0
17-10-2019 24.2 (15:10) 13.2 (00:00) 18.7 -- (--) -- (--) 0 0 0 0 0
16-10-2019 24.4 (14:50) 11.1 (00:00) 17.8 -- (--) -- (--) 0 0 0 0 0
15-10-2019 24 (15:20) 14.7 (00:00) 19.3 -- (--) -- (--) 0 0 0 0 0
14-10-2019 24.9 (13:30) 19.7 (00:00) 22.3 -- (--) -- (--) 0.6 0 0 0.6 0

Gráficas

Temp. máximas Temp. mínimas Temp. medias Precipitaciones Rachas de viento máximas Velocidades máximas media en intervalos de 10 minutos

Datos horarios

Fecha y hora oficial Temperatura (ºC) Velocidad del viento (km/h) Dirección del viento Racha (km/h) Dirección de racha Precipitación (mm) Presión (hPa) Tendencia (hPa) Humedad (%)
2019-11-12 23:00:00 13.3 10 Noroeste 22 Noroeste 0 -- -- 56
2019-11-12 22:00:00 11.5 2 Oeste 8 Sudoeste 0 -- -- 61
2019-11-12 21:00:00 12.2 2 Nordeste 17 Oeste 0 -- -- 59
2019-11-12 20:00:00 13.3 6 Oeste 18 Oeste 0 -- -- 55
2019-11-12 19:00:00 14 5 Oeste 24 Noroeste 0 -- -- 53
2019-11-12 18:00:00 14.5 6 Noroeste 23 Noroeste 0 -- -- 52
2019-11-12 17:00:00 16.2 7 Noroeste 36 Noroeste 0 -- -- 47
2019-11-12 16:00:00 18.2 10 Noroeste 30 Oeste 0 -- -- 42
2019-11-12 15:00:00 19 9 Noroeste 26 Oeste 0 -- -- 40
2019-11-12 14:00:00 18.9 9 Noroeste 30 Noroeste 0.2 -- -- 42
2019-11-12 13:00:00 17.1 6 Este 14 Oeste 0 -- -- 46
2019-11-12 12:00:00 16 4 Sudeste 17 Noroeste 0 -- -- 45
2019-11-12 11:00:00 16.3 6 Noroeste 15 Noroeste 0 -- -- 43
2019-11-12 10:00:00 14 4 Sur 19 Oeste 0 -- -- 50
2019-11-12 09:00:00 10.3 6 Oeste 21 Norte 0 -- -- 62
2019-11-12 08:00:00 9.4 9 Noroeste 21 Noroeste 0 -- -- 64
2019-11-12 07:00:00 8.8 8 Noroeste 23 Noroeste 0 -- -- 67
2019-11-12 06:00:00 8.5 6 Noroeste 19 Noroeste 0 -- -- 69
2019-11-12 05:00:00 9 7 Noroeste 21 Noroeste 0 -- -- 67
2019-11-12 04:00:00 9.5 7 Noroeste 21 Noroeste 0 -- -- 64
2019-11-12 03:00:00 9.7 2 Nordeste 20 Noroeste 0 -- -- 64
2019-11-12 02:00:00 10.1 6 Noroeste 19 Noroeste 0 -- -- 60
2019-11-12 01:00:00 10.4 4 Noroeste 26 Noroeste 0 -- -- 60
2019-11-12 00:00:00 10.4 9 Noroeste 27 Noroeste 0 -- -- 61
2019-11-11 23:00:00 10.2 4 Noroeste 15 Sudoeste 0 -- -- 66
2019-11-11 22:00:00 10.6 0 Calma 6 Noroeste 0 -- -- 69
2019-11-11 21:00:00 10.9 0 Calma 5 Noroeste 0 -- -- 71
2019-11-11 20:00:00 11.8 0 Calma 6 Este 0 -- -- 67
2019-11-11 19:00:00 12.5 3 Este 7 Norte 0 -- -- 64
2019-11-11 18:00:00 13.6 4 Norte 13 Noroeste 0 -- -- 60
2019-11-11 17:00:00 15 5 Noroeste 23 Noroeste 0 -- -- 52
2019-11-11 16:00:00 17.1 6 Noroeste 19 Noroeste 0 -- -- 45
2019-11-11 15:00:00 17.8 9 Noroeste 24 Noroeste 0 -- -- 40
2019-11-11 14:00:00 17.7 6 Oeste 19 Oeste 0 -- -- 40
2019-11-11 13:00:00 17.4 5 Noroeste 15 Noroeste 0 -- -- 40
2019-11-11 12:00:00 15.9 4 Noroeste 14 Oeste 0 -- -- 43
2019-11-11 11:00:00 13.3 5 Noroeste 10 Noroeste 0 -- -- 49
2019-11-11 10:00:00 10.4 2 Sur 7 Noroeste 0 -- -- 57
2019-11-11 09:00:00 8.2 2 Norte 5 Nordeste 0 -- -- 63
2019-11-11 08:00:00 7.1 0 Calma 6 Norte 0 -- -- 67
2019-11-11 07:00:00 6.5 0 Calma 5 Norte 0 -- -- 68
2019-11-11 06:00:00 5.6 0 Calma 4 Este 0 -- -- 71
2019-11-11 05:00:00 5.3 0 Calma 6 Noroeste 0 -- -- 71
2019-11-11 04:00:00 5.4 3 Noroeste 6 Noroeste 0 -- -- 71
2019-11-11 03:00:00 5.5 0 Calma 7 Noroeste 0 -- -- 72
2019-11-11 02:00:00 5.9 3 Norte 15 Noroeste 0 -- -- 72
2019-11-11 01:00:00 6 2 Noroeste 7 Noroeste 0 -- -- 74
2019-11-11 00:00:00 6.9 3 Noroeste 13 Noroeste 0 -- -- 71
2019-11-10 23:00:00 6.8 3 Noroeste 9 Norte 0 -- -- 72
2019-11-10 22:00:00 7.9 2 Noroeste 13 Noroeste 0 -- -- 68
2019-11-10 21:00:00 9.2 5 Noroeste 13 Noroeste 0 -- -- 62
2019-11-10 20:00:00 10 5 Noroeste 22 Noroeste 0 -- -- 59
2019-11-10 19:00:00 10.9 11 Noroeste 28 Noroeste 0 -- -- 57
2019-11-10 18:00:00 11.5 5 Noroeste 25 Noroeste 0 -- -- 54
2019-11-10 17:00:00 13.2 9 Noroeste 24 Noroeste 0 -- -- 50
2019-11-10 16:00:00 15.5 9 Noroeste 35 Noroeste 0 -- -- 45
2019-11-10 15:00:00 16.2 14 Noroeste 35 Noroeste 0 -- -- 41
2019-11-10 14:00:00 16.6 13 Noroeste 35 Norte 0 -- -- 41
2019-11-10 13:00:00 16.2 11 Noroeste 32 Noroeste 0 -- -- 41
2019-11-10 12:00:00 15.3 9 Noroeste 31 Noroeste 0 -- -- 45
2019-11-10 11:00:00 14 9 Noroeste 31 Noroeste 0 -- -- 47
2019-11-10 10:00:00 13 10 Noroeste 22 Norte 0 -- -- 48
2019-11-10 09:00:00 9.7 5 Noroeste 11 Norte 0 -- -- 60
2019-11-10 08:00:00 9.5 9 Noroeste 28 Noroeste 0 -- -- 61
2019-11-10 07:00:00 9.6 6 Noroeste 25 Noroeste 0 -- -- 63
2019-11-10 06:00:00 9.8 2 Noroeste 13 Noroeste 0 -- -- 71
2019-11-10 05:00:00 10.6 0 Calma 23 Noroeste 0 -- -- 68
2019-11-10 04:00:00 10.9 7 Noroeste 23 Noroeste 0.2 -- -- 70
2019-11-10 03:00:00 11.8 4 Noroeste 23 Noroeste 0 -- -- 71
2019-11-10 02:00:00 13.1 14 Noroeste 38 Noroeste 0 -- -- 56
2019-11-10 01:00:00 13.2 3 Noroeste 21 Noroeste 0 -- -- 61
2019-11-10 00:00:00 13.9 11 Noroeste 24 Norte 0 -- -- 57
2019-11-09 23:00:00 13.8 4 Oeste 17 Sudoeste 0 -- -- 56
2019-11-09 22:00:00 14.2 4 Oeste 18 Oeste 0 -- -- 54
2019-11-09 21:00:00 14 4 Oeste 15 Oeste 0 -- -- 54
2019-11-09 20:00:00 14.2 6 Oeste 16 Oeste 0 -- -- 51
2019-11-09 19:00:00 14.2 4 Oeste 26 Noroeste 0 -- -- 50
2019-11-09 18:00:00 14.9 13 Noroeste 39 Noroeste 0 -- -- 48
2019-11-09 17:00:00 15.3 10 Noroeste 22 Noroeste 0 -- -- 48
2019-11-09 16:00:00 15.8 6 Noroeste 28 Oeste 0 -- -- 50
2019-11-09 15:00:00 16.5 10 Noroeste 30 Noroeste 0 -- -- 48
2019-11-09 14:00:00 17.4 13 Noroeste 30 Noroeste 0 -- -- 44
2019-11-09 13:00:00 18.2 9 Noroeste 32 Noroeste 0 -- -- 41
2019-11-09 12:00:00 17.8 13 Noroeste 32 Noroeste 0 -- -- 41
2019-11-09 11:00:00 15.8 15 Noroeste 36 Noroeste 0 -- -- 46
2019-11-09 10:00:00 14.2 15 Noroeste 44 Noroeste 0 -- -- 50
2019-11-09 09:00:00 12 17 Noroeste 37 Noroeste 0 -- -- 57
2019-11-09 08:00:00 10.9 12 Noroeste 39 Norte 0 -- -- 61
2019-11-09 07:00:00 10.1 5 Norte 21 Noroeste 0 -- -- 64
2019-11-09 06:00:00 9.9 3 Nordeste 20 Noroeste 0 -- -- 65
2019-11-09 05:00:00 10.2 6 Noroeste 23 Noroeste 0 -- -- 63
2019-11-09 04:00:00 10.5 7 Noroeste 38 Noroeste 0 -- -- 62
2019-11-09 03:00:00 10.6 13 Noroeste 38 Norte 0 -- -- 62
2019-11-09 02:00:00 10.4 14 Noroeste 41 Noroeste 0 -- -- 63
2019-11-09 01:00:00 10.2 13 Noroeste 29 Noroeste 0 -- -- 64
2019-11-09 00:00:00 10.4 12 Noroeste 33 Norte 0 -- -- 64
2019-11-08 23:00:00 10.1 12 Noroeste 42 Noroeste 0 -- -- 65
2019-11-08 22:00:00 10.2 9 Noroeste 37 Norte 0 -- -- 65
2019-11-08 21:00:00 10.3 5 Noroeste 41 Noroeste 0 -- -- 62
2019-11-08 20:00:00 11 14 Noroeste 51 Noroeste 0 -- -- 59
2019-11-08 19:00:00 11.4 17 Noroeste 42 Noroeste 0 -- -- 58
2019-11-08 18:00:00 12.4 14 Noroeste 36 Noroeste 0 -- -- 54
2019-11-08 17:00:00 14.6 12 Noroeste 36 Noroeste 0 -- -- 46
2019-11-08 16:00:00 15.3 14 Noroeste 42 Noroeste 0 -- -- 43
2019-11-08 15:00:00 17 15 Noroeste 43 Noroeste 0 -- -- 38
2019-11-08 14:00:00 16.2 12 Noroeste 36 Noroeste 0 -- -- 40
2019-11-08 13:00:00 15.7 13 Noroeste 39 Noroeste 0 -- -- 43
2019-11-08 12:00:00 13.2 7 Noroeste 26 Noroeste 0 -- -- 50
2019-11-08 11:00:00 11.4 4 Oeste 28 Noroeste 0 -- -- 52
2019-11-08 10:00:00 11.2 5 Oeste 27 Noroeste 0 -- -- 50
2019-11-08 09:00:00 11.2 10 Noroeste 32 Noroeste 0 -- -- 49
2019-11-08 08:00:00 9.1 7 Noroeste 23 Noroeste 0 -- -- 55
2019-11-08 07:00:00 8.9 6 Oeste 24 Oeste 0 -- -- 57
2019-11-08 06:00:00 9.1 5 Oeste 22 Noroeste 0 -- -- 62
2019-11-08 05:00:00 9.3 5 Oeste 21 Oeste 0 -- -- 65
2019-11-08 04:00:00 9.9 5 Noroeste 14 Oeste 0 -- -- 64
2019-11-08 03:00:00 10.6 5 Oeste 17 Oeste 0 -- -- 61
2019-11-08 02:00:00 10.3 3 Oeste 14 Noroeste 0 -- -- 65
2019-11-08 01:00:00 11 3 Oeste 18 Norte 0 -- -- 61
2019-11-08 00:00:00 11.5 4 Noroeste 19 Noroeste 0 -- -- 57
2019-11-07 23:00:00 12.3 6 Oeste 24 Oeste 0 -- -- 56
2019-11-07 22:00:00 10.7 3 Noroeste 10 Noroeste 0 -- -- 63
2019-11-07 21:00:00 11.2 2 Oeste 6 Oeste 0 -- -- 60
2019-11-07 20:00:00 11.9 2 Norte 11 Noroeste 0 -- -- 62
2019-11-07 19:00:00 13.2 4 Noroeste 11 Noroeste 0 -- -- 55
2019-11-07 18:00:00 14.4 4 Noroeste 14 Noroeste 0 -- -- 51
2019-11-07 17:00:00 15.7 4 Noroeste 19 Noroeste 0 -- -- 50
2019-11-07 16:00:00 17 7 Noroeste 20 Sudoeste 0 -- -- 52
2019-11-07 15:00:00 19.2 9 Oeste 27 Oeste 0 -- -- 48
2019-11-07 14:00:00 17.9 6 Oeste 22 Oeste 0 -- -- 54
2019-11-07 13:00:00 17.6 7 Oeste 18 Oeste 0 -- -- 54
2019-11-07 12:00:00 16.7 3 Oeste 9 Noroeste 0 -- -- 56
2019-11-07 11:00:00 15.4 3 Noroeste 8 Noroeste 0 -- -- 62
2019-11-07 10:00:00 14.5 3 Oeste 11 Noroeste 0 -- -- 61
2019-11-07 09:00:00 13.2 3 Noroeste 8 Norte 0 -- -- 63
2019-11-07 08:00:00 10.7 0 Calma 4 Noroeste 0 -- -- 68
2019-11-07 07:00:00 11 2 Noroeste 5 Oeste 0 -- -- 65
2019-11-07 06:00:00 10.9 0 Calma 3 Oeste 0 -- -- 66
2019-11-07 05:00:00 10 0 Calma 5 Noroeste 0 -- -- 70
2019-11-07 04:00:00 10.5 3 Noroeste 4 Noroeste 0 -- -- 69
2019-11-07 03:00:00 11.8 3 Noroeste 12 Oeste 0 -- -- 65
2019-11-07 02:00:00 11.9 0 Calma 8 Oeste 0 -- -- 67
2019-11-07 01:00:00 11.7 3 Sur 12 Noroeste 0 -- -- 67
2019-11-07 00:00:00 11.3 3 Noroeste 11 Noroeste 0 -- -- 68
2019-11-06 23:00:00 11.8 0 Calma 8 Noroeste 0 -- -- 64
2019-11-06 22:00:00 12.3 0 Calma 6 Noroeste 0 -- -- 63
2019-11-06 21:00:00 13.3 3 Noroeste 9 Sudoeste 0 -- -- 60
2019-11-06 20:00:00 13.3 2 Nordeste 7 Este 0 -- -- 61
2019-11-06 19:00:00 14.5 3 Noroeste 15 Noroeste 0 -- -- 57
2019-11-06 18:00:00 16.4 6 Noroeste 24 Oeste 0 -- -- 49
2019-11-06 17:00:00 18.1 7 Noroeste 24 Norte 0 -- -- 46
2019-11-06 16:00:00 20.6 8 Noroeste 24 Noroeste 0 -- -- 41
2019-11-06 15:00:00 21.3 8 Noroeste 24 Noroeste 0 -- -- 40
2019-11-06 14:00:00 21 10 Noroeste 30 Norte 0 -- -- 41
2019-11-06 13:00:00 20.5 13 Noroeste 31 Noroeste 0 -- -- 41
2019-11-06 12:00:00 19.5 14 Noroeste 33 Noroeste 0 -- -- 43
2019-11-06 11:00:00 18.5 12 Noroeste 34 Noroeste 0 -- -- 45
2019-11-06 10:00:00 17.4 8 Noroeste 31 Noroeste 0 -- -- 49
2019-11-06 09:00:00 15 16 Noroeste 37 Noroeste 0 -- -- 56
2019-11-06 08:00:00 13.2 6 Noroeste 31 Noroeste 0 -- -- 60
2019-11-06 07:00:00 12.6 12 Noroeste 23 Norte 0 -- -- 61
2019-11-06 06:00:00 13.2 12 Noroeste 32 Norte 0 -- -- 57
2019-11-06 05:00:00 12.3 2 Sudeste 22 Noroeste 0 -- -- 60
2019-11-06 04:00:00 13 10 Noroeste 26 Noroeste 0 -- -- 57
2019-11-06 03:00:00 13.1 7 Noroeste 34 Noroeste 0 -- -- 57
2019-11-06 02:00:00 13.3 17 Noroeste 36 Noroeste 0 -- -- 57
2019-11-06 01:00:00 13.5 17 Noroeste 41 Noroeste 0 -- -- 55
2019-11-06 00:00:00 13.3 4 Noroeste 25 Noroeste 0 -- -- 56
2019-11-05 23:00:00 14 9 Noroeste 34 Noroeste 0 -- -- 55
2019-11-05 22:00:00 14.5 10 Noroeste 46 Noroeste 0 -- -- 53
2019-11-05 21:00:00 15 10 Noroeste 36 Noroeste 0 -- -- 51
2019-11-05 20:00:00 15.3 6 Oeste 24 Oeste 0 -- -- 50
2019-11-05 19:00:00 15.8 7 Oeste 25 Oeste 0 -- -- 49
2019-11-05 18:00:00 16.6 7 Noroeste 28 Noroeste 0 -- -- 47
2019-11-05 17:00:00 18 13 Noroeste 28 Noroeste 0 -- -- 43
2019-11-05 16:00:00 18.4 8 Oeste 28 Oeste 0 -- -- 40
2019-11-05 15:00:00 20.2 10 Noroeste 38 Noroeste 0 -- -- 37
2019-11-05 14:00:00 20.2 12 Noroeste 36 Noroeste 0 -- -- 37
2019-11-05 13:00:00 19.8 9 Noroeste 38 Noroeste 0 -- -- 39
2019-11-05 12:00:00 18.8 11 Oeste 30 Noroeste 0 -- -- 43
2019-11-05 11:00:00 17.8 9 Noroeste 39 Noroeste 0 -- -- 46
2019-11-05 10:00:00 17.1 13 Noroeste 29 Noroeste 0 -- -- 46
2019-11-05 09:00:00 15.5 6 Noroeste 21 Noroeste 0 -- -- 52
2019-11-05 08:00:00 13.8 10 Noroeste 28 Noroeste 0 -- -- 57
2019-11-05 07:00:00 14.4 8 Noroeste 30 Oeste 0 -- -- 60
2019-11-05 06:00:00 14.9 9 Noroeste 31 Noroeste 0 -- -- 63
2019-11-05 05:00:00 16 14 Noroeste 28 Noroeste 0 -- -- 58
2019-11-05 04:00:00 16.4 5 Oeste 15 Oeste 0 -- -- 63
2019-11-05 03:00:00 16.4 5 Oeste 24 Sudoeste 0 -- -- 63
2019-11-05 02:00:00 16.2 7 Noroeste 26 Noroeste 0 -- -- 68
2019-11-05 01:00:00 17.4 9 Noroeste 24 Oeste 0 -- -- 59
2019-11-05 00:00:00 17.8 8 Noroeste 26 Noroeste 0 -- -- 64
2019-11-04 23:00:00 18 7 Noroeste 31 Noroeste 0 -- -- 65
2019-11-04 22:00:00 19.5 8 Norte 23 Noroeste 0 -- -- 56
2019-11-04 21:00:00 18.7 3 Noroeste 8 Nordeste 0 -- -- 62
2019-11-04 20:00:00 20 3 Oeste 17 Oeste 0 -- -- 70
2019-11-04 19:00:00 20 5 Oeste 17 Oeste 0 -- -- 68
2019-11-04 18:00:00 20.6 3 Oeste 22 Sur 0 -- -- 68
2019-11-04 17:00:00 21.6 10 Sudoeste 23 Sudoeste 0 -- -- 67
2019-11-04 16:00:00 23.4 9 Oeste 24 Sudoeste 0 -- -- 57
2019-11-04 15:00:00 23.7 8 Oeste 25 Sur 0 -- -- 53
2019-11-04 14:00:00 23.2 9 Sudoeste 26 Sudoeste 0 -- -- 49
2019-11-04 13:00:00 24.5 10 Oeste 28 Noroeste 0 -- -- 46
2019-11-04 12:00:00 24.5 9 Oeste 25 Sudoeste 0 -- -- 42
2019-11-04 11:00:00 23.4 8 Oeste 24 Oeste 0 -- -- 44
2019-11-04 10:00:00 22 9 Oeste 24 Noroeste 0 -- -- 50
2019-11-04 09:00:00 20 8 Oeste 24 Oeste 0 -- -- 53
2019-11-04 08:00:00 18 8 Oeste 22 Oeste 0 -- -- 57
2019-11-04 07:00:00 17.6 5 Sudoeste 20 Sudoeste 0 -- -- 56
2019-11-04 06:00:00 17.4 5 Oeste 18 Oeste 0 -- -- 54
2019-11-04 05:00:00 17.4 7 Oeste 19 Oeste 0 -- -- 51
2019-11-04 04:00:00 16.8 5 Oeste 16 Oeste 0 -- -- 51
2019-11-04 03:00:00 16.6 3 Noroeste 21 Oeste 0 -- -- 51
2019-11-04 02:00:00 17.1 7 Oeste 21 Oeste 0 -- -- 48
2019-11-04 01:00:00 17.6 6 Sudoeste 33 Noroeste 0 -- -- 47
2019-11-04 00:00:00 17.7 7 Oeste 39 Noroeste 0 -- -- 46
2019-11-03 23:00:00 17.9 10 Noroeste 35 Oeste 0 -- -- 43
2019-11-03 22:00:00 17.6 15 Noroeste 36 Noroeste 0 -- -- 42
2019-11-03 21:00:00 17.6 7 Noroeste 32 Oeste 0 -- -- 42
2019-11-03 20:00:00 17.7 6 Oeste 61 Noroeste 0 -- -- 42
2019-11-03 19:00:00 18 17 Noroeste 43 Noroeste 0 -- -- 40
2019-11-03 18:00:00 18.2 21 Noroeste 51 Noroeste 0 -- -- 40
2019-11-03 17:00:00 19.3 23 Noroeste 51 Noroeste 0 -- -- 36
2019-11-03 16:00:00 20.7 17 Noroeste 48 Noroeste 0 -- -- 37
2019-11-03 15:00:00 21.1 20 Noroeste 49 Noroeste 0 -- -- 37
2019-11-03 14:00:00 20.9 21 Noroeste 48 Noroeste 0 -- -- 39
2019-11-03 13:00:00 20.5 21 Noroeste 50 Noroeste 0 -- -- 39
2019-11-03 12:00:00 19.7 19 Noroeste 46 Noroeste 0 -- -- 43
2019-11-03 11:00:00 18.7 22 Noroeste 56 Noroeste 0 -- -- 46
2019-11-03 10:00:00 17.2 14 Noroeste 34 Oeste 0.2 -- -- 71
2019-11-03 09:00:00 20.7 10 Oeste 27 Oeste 0 -- -- 55
2019-11-03 08:00:00 17.7 5 Oeste 17 Sudoeste 0 -- -- 61
2019-11-03 07:00:00 18 7 Oeste 24 Oeste 0 -- -- 58
2019-11-03 06:00:00 16.4 4 Noroeste 11 Noroeste 0 -- -- 76
2019-11-03 05:00:00 17.1 5 Noroeste 13 Noroeste 0 -- -- 79
2019-11-03 04:00:00 17.1 3 Noroeste 15 Noroeste 0 -- -- 79
2019-11-03 03:00:00 17.6 4 Noroeste 9 Noroeste 0 -- -- 87
2019-11-03 02:00:00 17.4 0 Calma 7 Noroeste 0 -- -- 87
2019-11-03 01:00:00 17.2 5 Noroeste 8 Noroeste 0 -- -- 83
2019-11-03 00:00:00 17.2 3 Noroeste 14 Sudoeste 0 -- -- 81
2019-11-02 23:00:00 17.2 4 Noroeste 8 Noroeste 0 -- -- 85
2019-11-02 22:00:00 17.2 0 Calma 6 Noroeste 0 -- -- 83
2019-11-02 21:00:00 17.5 4 Noroeste 8 Norte 0 -- -- 81
2019-11-02 20:00:00 17.8 3 Noroeste 8 Noroeste 0 -- -- 83
2019-11-02 19:00:00 18.7 0 Calma 5 Noroeste 0 -- -- 82
2019-11-02 18:00:00 20.4 5 Norte 14 Noroeste 0 -- -- 75
2019-11-02 17:00:00 21.7 4 Sudoeste 16 Sudoeste 0 -- -- 72
2019-11-02 16:00:00 23.2 8 Sudoeste 18 Sudoeste 0 -- -- 62
2019-11-02 15:00:00 24.3 9 Sudoeste 29 Noroeste 0 -- -- 57
2019-11-02 14:00:00 27 10 Oeste 30 Noroeste 0 -- -- 43
2019-11-02 13:00:00 26.4 9 Noroeste 28 Sudoeste 0 -- -- 45
2019-11-02 12:00:00 25.5 7 Oeste 23 Oeste 0 -- -- 49
2019-11-02 11:00:00 22.5 5 Oeste 17 Oeste 0 -- -- 59
2019-11-02 10:00:00 22.6 7 Oeste 14 Noroeste 0 -- -- 58
2019-11-02 09:00:00 19.8 0 Calma 12 Sudeste 0 -- -- 75
2019-11-02 08:00:00 18.2 2 Noroeste 23 Noroeste 0 -- -- 72
2019-11-02 07:00:00 18.4 2 Noroeste 17 Norte 0 -- -- 72
2019-11-02 06:00:00 18.5 2 Norte 20 Noroeste 0 -- -- 73
2019-11-02 05:00:00 17.8 3 Noroeste 18 Norte 0.2 -- -- 78
2019-11-02 04:00:00 16.6 3 Noroeste 12 Noroeste 0 -- -- 90
2019-11-02 03:00:00 16.1 0 Calma 8 Norte 0 -- -- 94
2019-11-02 02:00:00 16.3 3 Norte 10 Noroeste 0 -- -- 93
2019-11-02 01:00:00 16.8 0 Calma 5 Noroeste 0 -- -- 91
2019-11-02 00:00:00 16.8 5 Noroeste 12 Noroeste 0 -- -- 90
2019-11-01 23:00:00 17.4 2 Este 7 Este 0 -- -- 86
2019-11-01 22:00:00 17.8 0 Calma 5 Este 0 -- -- 85
2019-11-01 21:00:00 17.9 0 Calma 4 Noroeste 0 -- -- 85
2019-11-01 20:00:00 17.9 0 Calma 4 Norte 0 -- -- 84
2019-11-01 19:00:00 18.3 2 Este 5 Este 0 -- -- 81
2019-11-01 18:00:00 19.4 0 Calma 6 Sudoeste 0 -- -- 77
2019-11-01 17:00:00 20.5 3 Sudeste 10 Sur 0 -- -- 70
2019-11-01 16:00:00 21.7 4 Sudoeste 14 Sudeste 0 -- -- 63
2019-11-01 15:00:00 21 9 Sudeste 18 Sudeste 0 -- -- 62
2019-11-01 14:00:00 20.9 9 Este 16 Este 0 -- -- 62
2019-11-01 13:00:00 20.9 8 Sudeste 17 Este 0 -- -- 62
2019-11-01 12:00:00 20.3 6 Este 10 Sudeste 0 -- -- 64
2019-11-01 11:00:00 19.9 4 Sudeste 7 Sur 0 -- -- 64
2019-11-01 10:00:00 18.7 2 Noroeste 8 Noroeste 0 -- -- 64
2019-11-01 09:00:00 16.2 3 Noroeste 8 Noroeste 0 -- -- 76
2019-11-01 08:00:00 15 3 Norte 9 Norte 0 -- -- 76
2019-11-01 07:00:00 13.7 0 Calma 6 Noroeste 0 -- -- 81
2019-11-01 06:00:00 12.8 0 Calma 7 Noroeste 0 -- -- 84
2019-11-01 05:00:00 12.5 3 Noroeste 8 Noroeste 0 -- -- 84
2019-11-01 04:00:00 12.9 0 Calma 7 Noroeste 0 -- -- 83
2019-11-01 03:00:00 14.2 3 Noroeste 17 Norte 0 -- -- 77
2019-11-01 02:00:00 14.7 5 Norte 11 Noroeste 0.2 -- -- 80
2019-11-01 01:00:00 14.8 6 Noroeste 10 Norte 0 -- -- 92
2019-11-01 00:00:00 15.6 0 Calma 6 Noroeste 0 -- -- 92
2019-10-31 23:00:00 16.2 0 Calma 4 Noroeste 0 -- -- 91
2019-10-31 22:00:00 16.7 0 Calma 3 Noroeste 0 -- -- 90
2019-10-31 21:00:00 17.2 2 Noroeste 6 Este 0 -- -- 87
2019-10-31 20:00:00 18 0 Calma 6 Norte 0 -- -- 84
2019-10-31 19:00:00 19.2 2 Norte 14 Sudeste 0 -- -- 79
2019-10-31 18:00:00 20.3 9 Sudeste 21 Sudeste 0 -- -- 75
2019-10-31 17:00:00 20.8 9 Este 21 Sudeste 0 -- -- 73
2019-10-31 16:00:00 24.3 9 Sudeste 18 Noroeste 0 -- -- 63
2019-10-31 15:00:00 25.2 5 Sur 14 Este 0 -- -- 55
2019-10-31 14:00:00 24.7 5 Sudeste 12 Sur 0 -- -- 55
2019-10-31 13:00:00 24.3 5 Sudeste 17 Sudeste 0 -- -- 54
2019-10-31 12:00:00 23.6 10 Sudeste 17 Sudeste 0 -- -- 57
2019-10-31 11:00:00 22.7 6 Sudeste 14 Sudeste 0 -- -- 59
2019-10-31 10:00:00 21.3 3 Sudeste 10 Este 0 -- -- 64
2019-10-31 09:00:00 18.6 2 Este 8 Este 0 -- -- 76
2019-10-31 08:00:00 17 0 Calma 6 Noroeste 0.2 -- -- 80
2019-10-31 07:00:00 16.3 3 Noroeste 7 Noroeste 0 -- -- 83
2019-10-31 06:00:00 16.1 0 Calma 5 Noroeste 0 -- -- 85
2019-10-31 05:00:00 15.5 0 Calma 9 Noroeste 0 -- -- 85
2019-10-31 04:00:00 15.7 0 Calma 5 Sudeste 0 -- -- 83
2019-10-31 03:00:00 16.3 3 Noroeste 6 Noroeste 0 -- -- 81
2019-10-31 02:00:00 16.6 0 Calma 4 Noroeste 0 -- -- 81
2019-10-31 01:00:00 16.3 0 Calma 5 Norte 0 -- -- 81
2019-10-31 00:00:00 16.4 0 Calma 5 Noroeste 0 -- -- 79
2019-10-30 23:00:00 17.1 0 Calma 4 Noroeste 0 -- -- 78
2019-10-30 22:00:00 17 0 Calma 4 Noroeste 0 -- -- 74
2019-10-30 21:00:00 18 2 Noroeste 4 Noroeste 0 -- -- 74
2019-10-30 20:00:00 18.7 2 Noroeste 5 Sudoeste 0 -- -- 71
2019-10-30 19:00:00 18.9 0 Calma 7 Noroeste 0 -- -- 67
2019-10-30 18:00:00 21 3 Noroeste 17 Oeste 0 -- -- 59
2019-10-30 17:00:00 22.8 6 Oeste 19 Oeste 0 -- -- 61
2019-10-30 16:00:00 25.3 6 Oeste 18 Oeste 0 -- -- 44
2019-10-30 15:00:00 25.3 7 Sudeste 14 Sudeste 0 -- -- 53
2019-10-30 14:00:00 26 5 Sudeste 10 Sudeste 0 -- -- 52
2019-10-30 13:00:00 25.5 5 Noroeste 10 Noroeste 0 -- -- 55
2019-10-30 12:00:00 24.6 4 Oeste 12 Noroeste 0 -- -- 55
2019-10-30 11:00:00 23.3 7 Noroeste 14 Norte 0.2 -- -- 61
2019-10-30 10:00:00 21.3 4 Noroeste 12 Noroeste 0 -- -- 69
2019-10-30 09:00:00 18.2 8 Noroeste 14 Norte 0 -- -- 78
2019-10-30 08:00:00 16.3 6 Noroeste 15 Noroeste 0 -- -- 83
2019-10-30 07:00:00 15.8 4 Noroeste 9 Norte 0 -- -- 85
2019-10-30 06:00:00 15.7 4 Norte 10 Norte 0 -- -- 85
2019-10-30 05:00:00 15.9 5 Norte 10 Norte 0 -- -- 84
2019-10-30 04:00:00 15.9 4 Noroeste 11 Norte 0 -- -- 84
2019-10-30 03:00:00 15.6 0 Calma 9 Noroeste 0 -- -- 84
2019-10-30 02:00:00 15.9 2 Noroeste 10 Norte 0 -- -- 83
2019-10-30 01:00:00 15.9 2 Nordeste 9 Norte 0 -- -- 83
2019-10-30 00:00:00 15.8 3 Norte 12 Noroeste 0 -- -- 84
2019-10-29 23:00:00 15.8 0 Calma 5 Norte 0 -- -- 86
2019-10-29 22:00:00 16.4 0 Calma 5 Norte 0 -- -- 90
2019-10-29 21:00:00 17 0 Calma 4 Noroeste 0 -- -- 90
2019-10-29 20:00:00 17.7 0 Calma 4 Norte 0 -- -- 88
2019-10-29 19:00:00 18.5 0 Calma 5 Este 0 -- -- 84
2019-10-29 18:00:00 19.7 0 Calma 7 Oeste 0 -- -- 77
2019-10-29 17:00:00 20.9 3 Sudoeste 8 Sur 0 -- -- 73
2019-10-29 16:00:00 21.9 4 Sur 12 Sur 0 -- -- 71
2019-10-29 15:00:00 22 5 Sudoeste 11 Sudeste 0.2 -- -- 65
2019-10-29 14:00:00 21.4 7 Sudeste 12 Sudeste 0 -- -- 68
2019-10-29 13:00:00 21.3 5 Sudeste 12 Sudeste 0 -- -- 70
2019-10-29 12:00:00 20.6 2 Sudoeste 7 Sudoeste 0 -- -- 72
2019-10-29 11:00:00 20.5 3 Sudoeste 11 Norte 0 -- -- 73
2019-10-29 10:00:00 19.4 5 Noroeste 9 Noroeste 0 -- -- 76
2019-10-29 09:00:00 16.3 2 Nordeste 10 Norte 0 -- -- 84
2019-10-29 08:00:00 14.3 3 Norte 10 Norte 0 -- -- 89
2019-10-29 07:00:00 14.2 3 Norte 9 Norte 0 -- -- 90
2019-10-29 06:00:00 14.5 4 Norte 12 Norte 0 -- -- 90
2019-10-29 05:00:00 14.7 5 Norte 13 Norte 0 -- -- 90
2019-10-29 04:00:00 15 5 Norte 14 Noroeste 0 -- -- 90
2019-10-29 03:00:00 15.3 3 Norte 12 Nordeste 0 -- -- 91
2019-10-29 02:00:00 15.5 5 Noroeste 11 Noroeste 0 -- -- 93
2019-10-29 01:00:00 15.1 5 Norte 9 Norte 0 -- -- 94
2019-10-29 00:00:00 15.5 3 Noroeste 6 Noroeste 0 -- -- 93
2019-10-28 23:00:00 16.1 2 Noroeste 6 Noroeste 0 -- -- 93
2019-10-28 22:00:00 16.2 0 Calma 5 Norte 0 -- -- 93
2019-10-28 21:00:00 16.7 3 Noroeste 5 Noroeste 0.2 -- -- 91
2019-10-28 20:00:00 17.5 2 Noroeste 6 Noroeste 0 -- -- 89
2019-10-28 19:00:00 18.2 2 Oeste 4 Oeste 0 -- -- 88
2019-10-28 18:00:00 18.8 0 Calma 8 Sudoeste 0 -- -- 84
2019-10-28 17:00:00 19.2 4 Sudoeste 9 Oeste 0 -- -- 82
2019-10-28 16:00:00 19.6 3 Sudoeste 9 Sudeste 0 -- -- 80
2019-10-28 15:00:00 20.4 4 Sudoeste 9 Oeste 0 -- -- 76
2019-10-28 14:00:00 20.1 3 Oeste 11 Sudoeste 0 -- -- 77
2019-10-28 13:00:00 19.9 3 Oeste 9 Sur 0 -- -- 77
2019-10-28 12:00:00 20.7 2 Sudoeste 10 Noroeste 0 -- -- 73
2019-10-28 11:00:00 19.3 2 Noroeste 7 Noroeste 0 -- -- 81
2019-10-28 10:00:00 17.9 4 Noroeste 7 Noroeste 0 -- -- 82
2019-10-28 09:00:00 16.4 0 Calma 5 Norte 0 -- -- 88
2019-10-28 08:00:00 14.6 3 Noroeste 7 Noroeste 0 -- -- 90
2019-10-28 07:00:00 14.1 3 Noroeste 6 Noroeste 0 -- -- 91
2019-10-28 06:00:00 14.2 3 Noroeste 8 Noroeste 0 -- -- 90
2019-10-28 05:00:00 14.1 3 Noroeste 8 Noroeste 0.2 -- -- 90
2019-10-28 04:00:00 14.1 4 Noroeste 8 Noroeste 0 -- -- 90
2019-10-28 03:00:00 13.6 5 Noroeste 9 Noroeste 0 -- -- 89
2019-10-28 02:00:00 13.8 5 Noroeste 8 Noroeste 0 -- -- 91
2019-10-28 01:00:00 14.2 0 Calma 10 Noroeste 0 -- -- 91
2019-10-28 00:00:00 14.4 3 Noroeste 7 Noroeste 0 -- -- 90
2019-10-27 23:00:00 15.2 3 Noroeste 8 Noroeste 0 -- -- 89
2019-10-27 22:00:00 15.8 5 Noroeste 7 Noroeste 0 -- -- 86
2019-10-27 21:00:00 16.2 3 Noroeste 8 Noroeste 0 -- -- 84
2019-10-27 20:00:00 17.3 4 Noroeste 6 Norte 0 -- -- 81
2019-10-27 19:00:00 18.5 0 Calma 8 Sudoeste 0 -- -- 77
2019-10-27 18:00:00 19.4 2 Sudoeste 13 Sudeste 0 -- -- 71
2019-10-27 17:00:00 20.5 6 Sur 13 Sudoeste 0 -- -- 67
2019-10-27 16:00:00 21.7 4 Sudoeste 13 Sur 0 -- -- 62
2019-10-27 15:00:00 22.9 5 Sur 12 Sudoeste 0 -- -- 55
2019-10-27 14:00:00 22.7 5 Sudoeste 10 Sudoeste 0 -- -- 52
2019-10-27 13:00:00 21.8 6 Sudoeste 12 Sudeste 0.2 -- -- 56
2019-10-27 12:00:00 21.2 6 Sudeste 14 Sudeste 0 -- -- 62
2019-10-27 11:00:00 21.4 5 Sudeste 10 Sudeste 0 -- -- 59
2019-10-27 10:00:00 20.4 4 Noroeste 8 Noroeste 0 -- -- 65
2019-10-27 09:00:00 17.1 0 Calma 10 Noroeste 0 -- -- 75
2019-10-27 08:00:00 13.5 4 Noroeste 8 Noroeste 0 -- -- 84
2019-10-27 07:00:00 13.1 2 Norte 10 Norte 0 -- -- 85
2019-10-27 06:00:00 13.4 5 Norte 12 Nordeste 0 -- -- 84
2019-10-27 05:00:00 12.6 0 Calma 5 Noroeste 0 -- -- 88
2019-10-27 04:00:00 12.7 3 Norte 10 Noroeste 0 -- -- 88
2019-10-27 03:00:00 13 0 Calma 6 Norte 0 -- -- 89
2019-10-27 02:00:00 13.3 3 Noroeste 7 Norte 0 -- -- 90
2019-10-27 01:00:00 14.4 3 Norte 10 Noroeste 0 -- -- 87
2019-10-27 00:00:00 14.5 5 Norte 12 Noroeste 0.2 -- -- 90
2019-10-26 23:00:00 15 2 Noroeste 4 Noroeste 0 -- -- 90
2019-10-26 22:00:00 15.9 0 Calma 3 Noroeste 0 -- -- 89
2019-10-26 21:00:00 16.6 0 Calma 4 Noroeste 0 -- -- 86
2019-10-26 20:00:00 17.5 0 Calma 3 Norte 0 -- -- 82
2019-10-26 19:00:00 18.9 0 Calma 9 Sudeste 0 -- -- 74
2019-10-26 18:00:00 20.4 4 Sudeste 13 Sudeste 0 -- -- 69
2019-10-26 17:00:00 21.1 8 Sudeste 17 Sudeste 0 -- -- 68
2019-10-26 16:00:00 21.3 10 Sudeste 17 Sudeste 0 -- -- 64
2019-10-26 15:00:00 22.7 7 Sudeste 12 Sudeste 0 -- -- 56
2019-10-26 14:00:00 22.2 5 Sur 14 Sudeste 0.2 -- -- 55
2019-10-26 13:00:00 22 5 Sur 10 Sur 0 -- -- 54
2019-10-26 12:00:00 21.3 4 Sudeste 8 Sudeste 0 -- -- 58
2019-10-26 11:00:00 20.2 3 Sudeste 6 Sur 0 -- -- 61
2019-10-26 10:00:00 16.7 0 Calma 10 Norte 0 -- -- 70
2019-10-26 09:00:00 13.3 5 Norte 13 Norte 0 -- -- 81
2019-10-26 08:00:00 12.3 5 Norte 9 Norte 0 -- -- 89
2019-10-26 07:00:00 12.1 4 Noroeste 8 Norte 0.2 -- -- 93
2019-10-26 06:00:00 12.5 0 Calma 4 Noroeste 0 -- -- 94
2019-10-26 05:00:00 12.5 2 Norte 9 Noroeste 0 -- -- 93
2019-10-26 04:00:00 12.8 3 Noroeste 8 Noroeste 0 -- -- 93
2019-10-26 03:00:00 13.3 0 Calma 6 Noroeste 0 -- -- 92
2019-10-26 02:00:00 14.1 0 Calma 4 Este 0 -- -- 92
2019-10-26 01:00:00 14.8 2 Norte 9 Noroeste 0 -- -- 91
2019-10-26 00:00:00 14.8 2 Noroeste 10 Norte 0 -- -- 90
2019-10-25 23:00:00 15.5 0 Calma 4 Noroeste 0 -- -- 88
2019-10-25 22:00:00 16.5 0 Calma 5 Oeste 0.2 -- -- 84
2019-10-25 21:00:00 17.9 3 Oeste 10 Oeste 0 -- -- 79
2019-10-25 20:00:00 18.4 0 Calma 12 Oeste 0 -- -- 73
2019-10-25 19:00:00 19.5 5 Oeste 14 Sudoeste 0 -- -- 71
2019-10-25 18:00:00 21.2 6 Sudoeste 12 Sudoeste 0 -- -- 62
2019-10-25 17:00:00 22.8 4 Sudoeste 12 Sudoeste 0 -- -- 54
2019-10-25 16:00:00 22.8 6 Sudoeste 14 Sudoeste 0 -- -- 54
2019-10-25 15:00:00 22.4 6 Sur 15 Sudeste 0.2 -- -- 52
2019-10-25 14:00:00 21.9 10 Sudeste 17 Sudeste 0 -- -- 53
2019-10-25 13:00:00 21.5 4 Sur 9 Sur 0 -- -- 53
2019-10-25 12:00:00 20.1 7 Sudeste 10 Sudeste 0.2 -- -- 55
2019-10-25 11:00:00 18.6 6 Sudeste 12 Este 0 -- -- 60
2019-10-25 10:00:00 16.3 2 Este 5 Norte 0 -- -- 71
2019-10-25 09:00:00 11.7 2 Noroeste 12 Noroeste 0 -- -- 86
2019-10-25 08:00:00 11.9 2 Norte 6 Este 0.2 -- -- 84
2019-10-25 07:00:00 12.3 4 Este 14 Sudeste 0 -- -- 82
2019-10-25 06:00:00 11.9 2 Nordeste 12 Noroeste 0 -- -- 85
2019-10-25 05:00:00 11.6 0 Calma 10 Norte 0 -- -- 84
2019-10-25 04:00:00 11.5 3 Noroeste 8 Noroeste 0 -- -- 86
2019-10-25 03:00:00 12.4 3 Noroeste 8 Norte 0.2 -- -- 82
2019-10-25 02:00:00 12.6 3 Noroeste 9 Noroeste 0 -- -- 81
2019-10-25 01:00:00 13.3 0 Calma 6 Noroeste 0 -- -- 78
2019-10-25 00:00:00 13.4 0 Calma 5 Nordeste 0 -- -- 76
2019-10-24 23:00:00 13.8 0 Calma 5 Este 0 -- -- 73
2019-10-24 22:00:00 14.7 2 Este 5 Este 0.2 -- -- 70
2019-10-24 21:00:00 15.4 0 Calma 5 Noroeste 0 -- -- 67
2019-10-24 20:00:00 16.5 2 Norte 12 Oeste 0 -- -- 63
2019-10-24 19:00:00 17.8 4 Noroeste 15 Oeste 0 -- -- 57
2019-10-24 18:00:00 19.2 4 Oeste 28 Noroeste 0.2 -- -- 52
2019-10-24 17:00:00 21.1 9 Noroeste 29 Noroeste 0 -- -- 50
2019-10-24 16:00:00 22.1 8 Noroeste 26 Noroeste 0 -- -- 49
2019-10-24 15:00:00 21.8 10 Noroeste 27 Noroeste 0.2 -- -- 49
2019-10-24 14:00:00 21.5 10 Noroeste 23 Noroeste 0 -- -- 49
2019-10-24 13:00:00 20.9 4 Norte 16 Norte 0.2 -- -- 52
2019-10-24 12:00:00 19.7 9 Noroeste 19 Norte 0.2 -- -- 56
2019-10-24 11:00:00 18.5 8 Noroeste 18 Noroeste 0 -- -- 63
2019-10-24 10:00:00 15.1 8 Norte 17 Noroeste 0.2 -- -- 75
2019-10-24 09:00:00 12.6 8 Noroeste 17 Noroeste 0 -- -- 80
2019-10-24 08:00:00 12.5 7 Norte 17 Noroeste 0 -- -- 81
2019-10-24 07:00:00 12.4 5 Norte 19 Noroeste 0.2 -- -- 81
2019-10-24 06:00:00 12.6 7 Noroeste 16 Norte 0 -- -- 82
2019-10-24 05:00:00 12.8 6 Norte 14 Norte 0.2 -- -- 82
2019-10-24 04:00:00 12.6 5 Norte 15 Norte 0 -- -- 85
2019-10-24 03:00:00 12.5 2 Este 7 Nordeste 0 -- -- 88
2019-10-24 02:00:00 12.6 2 Norte 10 Noroeste 0.2 -- -- 89
2019-10-24 01:00:00 13.2 0 Calma 5 Noroeste 0 -- -- 86
2019-10-24 00:00:00 14 0 Calma 5 Noroeste 0.2 -- -- 85
2019-10-23 23:00:00 14.8 2 Noroeste 6 Noroeste 0 -- -- 83
2019-10-23 22:00:00 14.5 0 Calma 8 Norte 0.2 -- -- 85
2019-10-23 21:00:00 14.7 0 Calma 4 Norte 0 -- -- 84
2019-10-23 20:00:00 16.1 0 Calma 7 Oeste 0.2 -- -- 77
2019-10-23 19:00:00 17.4 3 Sudoeste 12 Sudeste 0.2 -- -- 69
2019-10-23 18:00:00 18.1 5 Sudeste 17 Sudeste 0 -- -- 66
2019-10-23 17:00:00 18.2 8 Sudeste 19 Sudeste 0.2 -- -- 66
2019-10-23 16:00:00 19.4 10 Sudeste 22 Este 0.2 -- -- 61
2019-10-23 15:00:00 19.4 10 Sudeste 21 Sudeste 0.2 -- -- 62
2019-10-23 14:00:00 19.3 8 Sudeste 20 Sur 0.4 -- -- 60
2019-10-23 13:00:00 19.8 7 Sudeste 18 Sudoeste 0.4 -- -- 64
2019-10-23 12:00:00 18.4 5 Sur 18 Sudeste 0.4 -- -- 70
2019-10-23 11:00:00 18.2 5 Sudoeste 14 Sudoeste 0.4 -- -- 73
2019-10-23 10:00:00 15.9 3 Noroeste 9 Noroeste 0.6 -- -- 92
2019-10-23 09:00:00 15.2 4 Noroeste 7 Norte 0.6 -- -- 92
2019-10-23 08:00:00 15.5 5 Norte 11 Sudoeste 0.8 -- -- 90
2019-10-23 07:00:00 16.1 4 Sudoeste 15 Sudoeste 0.8 -- -- 85
2019-10-23 06:00:00 16.3 8 Sur 21 Sur 1.2 -- -- 85
2019-10-23 05:00:00 15.5 12 Sur 32 Sudoeste 1.2 -- -- 89
2019-10-23 04:00:00 15 8 Norte 27 Norte 1.6 -- -- 91
2019-10-23 03:00:00 14.8 13 Norte 41 Norte 2 -- -- 93
2019-10-23 02:00:00 14.2 12 Norte 31 Noroeste 2.4 -- -- 95
2019-10-23 01:00:00 14.5 6 Norte 25 Norte 3 -- -- 95
2019-10-23 00:00:00 14.8 7 Norte 19 Norte 4 -- -- 96
2019-10-22 23:00:00 14.9 3 Noroeste 30 Norte 6.2 -- -- 95
2019-10-22 22:00:00 14.7 12 Noroeste 23 Noroeste 11 -- -- 95
2019-10-22 21:00:00 15.5 4 Noroeste 27 Norte 5.6 -- -- 90
2019-10-22 20:00:00 20.7 10 Este 46 Este 1 -- -- 91
2019-10-22 19:00:00 20.6 18 Este 46 Este 0.2 -- -- 87
2019-10-22 18:00:00 20.2 19 Este 51 Este 0 -- -- 87
2019-10-22 17:00:00 20.5 21 Este 52 Este 0 -- -- 82
2019-10-22 16:00:00 18.9 21 Este 52 Este 1 -- -- 87
2019-10-22 15:00:00 18.6 18 Este 42 Este 2 -- -- 87
2019-10-22 14:00:00 16.6 9 Sudeste 33 Sudeste 2.8 -- -- 92
2019-10-22 13:00:00 16 3 Norte 12 Noroeste 0.2 -- -- 91
2019-10-22 12:00:00 15.5 3 Norte 15 Noroeste 0 -- -- 91
2019-10-22 11:00:00 14.6 5 Norte 18 Noroeste 0.4 -- -- 95
2019-10-22 10:00:00 14.1 6 Norte 22 Norte 1.6 -- -- 95
2019-10-22 09:00:00 14 9 Norte 22 Nordeste 6 -- -- 94
2019-10-22 08:00:00 14.2 6 Noroeste 15 Norte 2.4 -- -- 93
2019-10-22 07:00:00 14 5 Norte 15 Norte 2.2 -- -- 93
2019-10-22 06:00:00 14 6 Norte 17 Norte 2.6 -- -- 91
2019-10-22 05:00:00 14.3 6 Norte 13 Norte 1.8 -- -- 88
2019-10-22 04:00:00 15.5 6 Norte 18 Nordeste 0 -- -- 81
2019-10-22 03:00:00 15.9 4 Norte 12 Norte 0 -- -- 77
2019-10-22 02:00:00 16.3 4 Norte 13 Norte 0 -- -- 75
2019-10-22 01:00:00 16.5 3 Nordeste 11 Nordeste 0 -- -- 77
2019-10-22 00:00:00 16.6 3 Nordeste 9 Nordeste 0 -- -- 77
2019-10-21 23:00:00 16.8 2 Nordeste 8 Norte 0 -- -- 74
2019-10-21 22:00:00 17 4 Noroeste 8 Noroeste 0 -- -- 72
2019-10-21 21:00:00 17.5 0 Calma 5 Oeste 0 -- -- 71
2019-10-21 20:00:00 17.8 0 Calma 10 Sudoeste 0 -- -- 68
2019-10-21 19:00:00 18.5 4 Sudeste 16 Sudeste 0 -- -- 64
2019-10-21 18:00:00 19 7 Sudeste 14 Este 0 -- -- 62
2019-10-21 17:00:00 19.4 8 Sudeste 15 Sudeste 0 -- -- 57
2019-10-21 16:00:00 19.8 6 Sudeste 12 Sudeste 0 -- -- 53
2019-10-21 15:00:00 20.9 6 Sur 17 Sudeste 0 -- -- 50
2019-10-21 14:00:00 20.6 5 Norte 18 Noroeste 0 -- -- 50
2019-10-21 13:00:00 18.1 7 Norte 22 Noroeste 0 -- -- 59
2019-10-21 12:00:00 15.8 9 Noroeste 19 Noroeste 0 -- -- 65
2019-10-21 11:00:00 15.1 10 Norte 22 Noroeste 0 -- -- 69
2019-10-21 10:00:00 14.1 9 Norte 22 Norte 0 -- -- 71
2019-10-21 09:00:00 13.9 9 Noroeste 18 Noroeste 0 -- -- 71
2019-10-21 08:00:00 13.6 7 Norte 16 Norte 0 -- -- 71
2019-10-21 07:00:00 13 5 Noroeste 12 Noroeste 0 -- -- 75
2019-10-21 06:00:00 13.6 2 Oeste 11 Noroeste 0 -- -- 72
2019-10-21 05:00:00 13.5 6 Norte 12 Norte 0 -- -- 71
2019-10-21 04:00:00 13.9 7 Norte 15 Norte 0 -- -- 69
2019-10-21 03:00:00 13.6 5 Noroeste 17 Norte 0 -- -- 73
2019-10-21 02:00:00 13.7 4 Norte 11 Norte 0 -- -- 74
2019-10-21 01:00:00 13.8 2 Noroeste 12 Norte 0 -- -- 81
2019-10-21 00:00:00 14.6 6 Noroeste 13 Noroeste 0 -- -- 81
2019-10-20 23:00:00 15.2 4 Norte 8 Norte 0 -- -- 79
2019-10-20 22:00:00 16 3 Norte 10 Norte 0 -- -- 79
2019-10-20 21:00:00 16.9 5 Noroeste 9 Norte 0 -- -- 79
2019-10-20 20:00:00 17.4 4 Norte 11 Norte 0 -- -- 76
2019-10-20 19:00:00 18.1 4 Norte 9 Norte 0 -- -- 77
2019-10-20 18:00:00 18.5 2 Nordeste 6 Nordeste 0 -- -- 76
2019-10-20 17:00:00 18.3 3 Noroeste 17 Oeste 0 -- -- 78
2019-10-20 16:00:00 18.3 4 Oeste 15 Oeste 0 -- -- 77
2019-10-20 15:00:00 17.5 4 Noroeste 12 Noroeste 1.6 -- -- 86
2019-10-20 14:00:00 19.1 7 Noroeste 26 Sudoeste 1 -- -- 77
2019-10-20 13:00:00 21.7 3 Noroeste 16 Noroeste 0 -- -- 57
2019-10-20 12:00:00 21.7 8 Noroeste 19 Noroeste 0 -- -- 59
2019-10-20 11:00:00 21.5 8 Oeste 26 Oeste 0 -- -- 77
2019-10-20 10:00:00 22.4 4 Sudoeste 10 Sudoeste 0 -- -- 82
2019-10-20 09:00:00 21.5 3 Sur 10 Sur 0 -- -- 89
2019-10-20 08:00:00 21.3 4 Sudeste 12 Sudeste 0 -- -- 90
2019-10-20 07:00:00 21.2 4 Sudeste 13 Sudeste 0 -- -- 90
2019-10-20 06:00:00 21.2 6 Sudeste 14 Sudeste 0 -- -- 89
2019-10-20 05:00:00 21.2 7 Sudeste 15 Sudeste 0 -- -- 89
2019-10-20 04:00:00 21.2 7 Sudeste 15 Sudeste 0 -- -- 89
2019-10-20 03:00:00 21.3 5 Sudeste 12 Sudoeste 0 -- -- 89
2019-10-20 02:00:00 21.4 2 Sur 14 Sur 0 -- -- 87
2019-10-20 01:00:00 21.4 4 Sudoeste 13 Sur 0 -- -- 86
2019-10-20 00:00:00 21.3 6 Sur 19 Sur 0 -- -- 86
2019-10-19 23:00:00 21.6 8 Sudoeste 23 Sudoeste 0 -- -- 82
2019-10-19 22:00:00 21.7 5 Sudoeste 18 Sudoeste 0 -- -- 81
2019-10-19 21:00:00 21.9 5 Sur 13 Sudoeste 0 -- -- 80
2019-10-19 20:00:00 21.7 4 Sudeste 10 Sudeste 0 -- -- 80
2019-10-19 19:00:00 22.3 5 Sudeste 10 Sudeste 0 -- -- 75
2019-10-19 18:00:00 22.7 3 Sudeste 11 Sudeste 0 -- -- 76
2019-10-19 17:00:00 23.4 5 Sudoeste 15 Sudeste 0 -- -- 73
2019-10-19 16:00:00 23.6 7 Sur 21 Sudeste 0 -- -- 72
2019-10-19 15:00:00 23.7 10 Sudeste 18 Sudeste 0 -- -- 74
2019-10-19 14:00:00 23.9 8 Sudeste 17 Sudeste 0 -- -- 74
2019-10-19 13:00:00 24.4 6 Sudeste 14 Sudeste 0 -- -- 70
2019-10-19 12:00:00 23.9 4 Sur 10 Sudeste 0 -- -- 70
2019-10-19 11:00:00 22.6 5 Noroeste 9 Noroeste 0 -- -- 70
2019-10-19 10:00:00 18.9 4 Noroeste 7 Noroeste 0 -- -- 87
2019-10-19 09:00:00 16.7 0 Calma 9 Este 0 -- -- 94
2019-10-19 08:00:00 15.6 2 Noroeste 5 Noroeste 0 -- -- 92
2019-10-19 07:00:00 15.6 0 Calma 7 Noroeste 0 -- -- 90
2019-10-19 06:00:00 16.3 0 Calma 6 Noroeste 0 -- -- 89
2019-10-19 05:00:00 16.3 0 Calma 10 Norte 0 -- -- 82
2019-10-19 04:00:00 16 3 Norte 6 Noroeste 0 -- -- 79
2019-10-19 03:00:00 16.4 3 Noroeste 5 Noroeste 0 -- -- 83
2019-10-19 02:00:00 16.7 0 Calma 5 Noroeste 0 -- -- 82
2019-10-19 01:00:00 17.4 0 Calma 4 Este 0 -- -- 79
2019-10-19 00:00:00 17.8 0 Calma 4 Noroeste 0 -- -- 79
2019-10-18 23:00:00 18 0 Calma 5 Noroeste 0 -- -- 76
2019-10-18 22:00:00 18.7 0 Calma 6 Este 0 -- -- 75
2019-10-18 21:00:00 19.3 2 Este 4 Sudeste 0 -- -- 68
2019-10-18 20:00:00 20.4 0 Calma 5 Oeste 0 -- -- 65
2019-10-18 19:00:00 22 3 Oeste 11 Oeste 0 -- -- 64
2019-10-18 18:00:00 23 6 Sudoeste 14 Oeste 0 -- -- 68
2019-10-18 17:00:00 23.4 5 Sudoeste 15 Sudoeste 0 -- -- 68
2019-10-18 16:00:00 24.3 5 Sur 14 Sudeste 0 -- -- 62
2019-10-18 15:00:00 23.9 6 Sur 17 Sudoeste 0 -- -- 56
2019-10-18 14:00:00 23.5 7 Sudeste 14 Sudeste 0 -- -- 55
2019-10-18 13:00:00 23.7 6 Sudeste 12 Sur 0 -- -- 52
2019-10-18 12:00:00 22.4 3 Sur 8 Sudeste 0 -- -- 55
2019-10-18 11:00:00 22 2 Sur 4 Sudoeste 0 -- -- 53
2019-10-18 10:00:00 18.8 0 Calma 10 Nordeste 0 -- -- 63
2019-10-18 09:00:00 16.1 5 Norte 9 Nordeste 0 -- -- 71
2019-10-18 08:00:00 15.3 0 Calma 6 Este 0 -- -- 73
2019-10-18 07:00:00 15.3 0 Calma 5 Este 0 -- -- 73
2019-10-18 06:00:00 15 0 Calma 5 Norte 0 -- -- 74
2019-10-18 05:00:00 15 0 Calma 6 Noroeste 0 -- -- 73
2019-10-18 04:00:00 15.2 4 Noroeste 8 Norte 0 -- -- 69
2019-10-18 03:00:00 15.5 4 Noroeste 8 Noroeste 0 -- -- 70
2019-10-18 02:00:00 15.8 3 Noroeste 10 Norte 0 -- -- 69
2019-10-18 01:00:00 15.7 4 Noroeste 8 Noroeste 0 -- -- 71
2019-10-18 00:00:00 16.7 0 Calma 4 Noroeste 0 -- -- 74
2019-10-17 23:00:00 17.8 0 Calma 5 Noroeste 0 -- -- 76
2019-10-17 22:00:00 19 0 Calma 6 Oeste 0 -- -- 74
2019-10-17 21:00:00 19.9 0 Calma 9 Oeste 0 -- -- 69
2019-10-17 20:00:00 20.4 0 Calma 7 Noroeste 0 -- -- 56
2019-10-17 19:00:00 22 2 Oeste 6 Norte 0 -- -- 60
2019-10-17 18:00:00 22.4 3 Sur 14 Oeste 0 -- -- 64
2019-10-17 17:00:00 22.8 5 Sur 15 Sudeste 0 -- -- 62
2019-10-17 16:00:00 23.9 6 Sur 17 Sudoeste 0 -- -- 58
2019-10-17 15:00:00 24.1 7 Sur 19 Sudeste 0 -- -- 58
2019-10-17 14:00:00 23.4 10 Sudeste 18 Sudeste 0 -- -- 68
2019-10-17 13:00:00 24 8 Sudeste 12 Sur 0 -- -- 58
2019-10-17 12:00:00 23.8 6 Sur 9 Sudeste 0 -- -- 50
2019-10-17 11:00:00 22.3 3 Sudoeste 5 Oeste 0 -- -- 51
2019-10-17 10:00:00 18.6 3 Noroeste 10 Noroeste 0 -- -- 59
2019-10-17 09:00:00 14.6 5 Norte 11 Norte 0 -- -- 71
2019-10-17 08:00:00 13.5 8 Noroeste 14 Noroeste 0 -- -- 72
2019-10-17 07:00:00 13.2 3 Noroeste 9 Noroeste 0 -- -- 73
2019-10-17 06:00:00 13.6 0 Calma 6 Noroeste 0 -- -- 70
2019-10-17 05:00:00 14.5 2 Noroeste 12 Norte 0 -- -- 67
2019-10-17 04:00:00 14.7 9 Noroeste 13 Noroeste 0 -- -- 66
2019-10-17 03:00:00 14.2 5 Noroeste 10 Norte 0 -- -- 72
2019-10-17 02:00:00 13.7 3 Noroeste 7 Noroeste 0 -- -- 76
2019-10-17 01:00:00 14.6 4 Noroeste 9 Noroeste 0 -- -- 73
2019-10-17 00:00:00 15.7 4 Noroeste 9 Noroeste 0 -- -- 70
2019-10-16 23:00:00 16.5 3 Noroeste 5 Noroeste 0 -- -- 69
2019-10-16 22:00:00 17.8 3 Noroeste 13 Oeste 0 -- -- 68
2019-10-16 21:00:00 19.5 5 Oeste 15 Oeste 0 -- -- 65
2019-10-16 20:00:00 20 4 Oeste 22 Oeste 0 -- -- 61
2019-10-16 19:00:00 20.8 8 Oeste 23 Oeste 0 -- -- 55
2019-10-16 18:00:00 22.3 7 Oeste 22 Sudoeste 0 -- -- 46
2019-10-16 17:00:00 23.3 10 Sudoeste 23 Sur 0 -- -- 49
2019-10-16 16:00:00 23.3 9 Sur 26 Sudoeste 0 -- -- 46
2019-10-16 15:00:00 23.9 9 Sur 23 Sudoeste 0 -- -- 45
2019-10-16 14:00:00 24.1 13 Sudoeste 25 Oeste 0 -- -- 38
2019-10-16 13:00:00 23.3 7 Sur 18 Sudoeste 0 -- -- 43
2019-10-16 12:00:00 23.1 5 Sur 12 Sur 0 -- -- 36
2019-10-16 11:00:00 21.9 3 Oeste 9 Norte 0 -- -- 38
2019-10-16 10:00:00 18.4 4 Noroeste 9 Norte 0 -- -- 47
2019-10-16 09:00:00 13.5 5 Noroeste 10 Noroeste 0 -- -- 58
2019-10-16 08:00:00 12 4 Noroeste 8 Noroeste 0 -- -- 63
2019-10-16 07:00:00 12.1 0 Calma 6 Noroeste 0 -- -- 62
2019-10-16 06:00:00 11.7 0 Calma 11 Noroeste 0 -- -- 63
2019-10-16 05:00:00 11.3 4 Noroeste 7 Noroeste 0 -- -- 66
2019-10-16 04:00:00 11.9 0 Calma 5 Noroeste 0 -- -- 64
2019-10-16 03:00:00 12.4 0 Calma 4 Este 0 -- -- 62
2019-10-16 02:00:00 12.5 0 Calma 5 Noroeste 0 -- -- 61
2019-10-16 01:00:00 13.3 3 Norte 9 Noroeste 0 -- -- 58
2019-10-16 00:00:00 14.8 0 Calma 7 Oeste 0 -- -- 53
2019-10-15 23:00:00 15.1 3 Noroeste 6 Sudoeste 0 -- -- 51
2019-10-15 22:00:00 15.8 2 Noroeste 10 Noroeste 0 -- -- 49
2019-10-15 21:00:00 15.9 0 Calma 6 Noroeste 0 -- -- 50
2019-10-15 20:00:00 17.6 4 Noroeste 14 Norte 0 -- -- 46
2019-10-15 19:00:00 20.2 8 Noroeste 21 Noroeste 0 -- -- 39
2019-10-15 18:00:00 22.1 7 Noroeste 20 Noroeste 0 -- -- 36
2019-10-15 17:00:00 23.5 6 Noroeste 21 Noroeste 0 -- -- 33
2019-10-15 16:00:00 23.7 11 Noroeste 25 Noroeste 0 -- -- 33
2019-10-15 15:00:00 23.5 13 Noroeste 28 Noroeste 0 -- -- 32
2019-10-15 14:00:00 23 10 Noroeste 27 Noroeste 0 -- -- 33
2019-10-15 13:00:00 21.5 9 Noroeste 33 Noroeste 0 -- -- 37
2019-10-15 12:00:00 20.8 12 Noroeste 30 Noroeste 0 -- -- 38
2019-10-15 11:00:00 19.4 8 Noroeste 26 Noroeste 0 -- -- 41
2019-10-15 10:00:00 17.4 5 Oeste 32 Noroeste 0 -- -- 49
2019-10-15 09:00:00 15 7 Oeste 28 Noroeste 0 -- -- 57
2019-10-15 08:00:00 15 8 Noroeste 31 Noroeste 0 -- -- 58
2019-10-15 07:00:00 15.2 12 Noroeste 31 Noroeste 0 -- -- 57
2019-10-15 06:00:00 15.5 8 Noroeste 30 Noroeste 0 -- -- 55
2019-10-15 05:00:00 16.3 13 Noroeste 37 Noroeste 0 -- -- 52
2019-10-15 04:00:00 16.9 18 Noroeste 42 Noroeste 0 -- -- 50
2019-10-15 03:00:00 17.3 10 Noroeste 30 Noroeste 0 -- -- 54
2019-10-15 02:00:00 18 8 Noroeste 27 Norte 0 -- -- 58
2019-10-15 01:00:00 20.2 13 Noroeste 26 Noroeste 0 -- -- 65
2019-10-15 00:00:00 21.5 4 Oeste 17 Oeste 0 -- -- 83
2019-10-14 23:00:00 21.6 5 Sudoeste 20 Sudoeste 0 -- -- 80
2019-10-14 22:00:00 21.6 8 Sur 21 Sur 0 -- -- 83
2019-10-14 21:00:00 20.7 6 Este 13 Este 0 -- -- 92
2019-10-14 20:00:00 20.9 4 Este 17 Este 0 -- -- 91
2019-10-14 19:00:00 21.6 8 Este 18 Este 0 -- -- 91
2019-10-14 18:00:00 21.6 4 Este 16 Este 0 -- -- 91
2019-10-14 17:00:00 22.1 5 Este 16 Este 0.6 -- -- 88
2019-10-14 16:00:00 22.8 8 Sudeste 20 Este 0 -- -- 81
2019-10-14 15:00:00 24 11 Sudeste 20 Sudeste 0 -- -- 73
2019-10-14 14:00:00 24.6 8 Este 24 Sudeste 0 -- -- 71
2019-10-14 13:00:00 24.8 11 Sudeste 30 Este 0 -- -- 72
2019-10-14 12:00:00 23.6 12 Este 24 Sudeste 0 -- -- 76
2019-10-14 11:00:00 22.5 10 Este 23 Este 0 -- -- 80
2019-10-14 10:00:00 21.7 7 Este 23 Este 0 -- -- 82
2019-10-14 09:00:00 20.3 5 Este 14 Nordeste 0 -- -- 87
2019-10-14 08:00:00 19.9 3 Este 14 Este 0 -- -- 87
2019-10-14 07:00:00 20 4 Este 15 Nordeste 0 -- -- 88
2019-10-14 06:00:00 20.1 4 Este 14 Nordeste 0 -- -- 88
2019-10-14 05:00:00 20.2 3 Este 9 Este 0 -- -- 87
2019-10-14 04:00:00 20 0 Calma 9 Este 0 -- -- 88
2019-10-14 03:00:00 19.8 0 Calma 10 Este 0 -- -- 88
2019-10-14 02:00:00 20.4 0 Calma 8 Este 0 -- -- 88
2019-10-14 01:00:00 20.9 0 Calma 9 Nordeste 0 -- -- 88
2019-10-14 00:00:00 21.3 2 Norte 9 Nordeste 0 -- -- 88